Time;durP1;ratioP1;P1;durP2;ratioP2;P2;SDS_P1;SDS_P2;PMS_P1;PMS_P2;Temp;Humidity;BMP_temperature;BMP_pressure;BME280_temperature;BME280_humidity;BME280_pressure;Samples;Min_cycle;Max_cycle;Signal;HPM_P1;HPM_P2
2022/10/21 00:00:56;;;;;;;8.57;5.17;;;;;;;20.99;67.81;100036.72;4954112;29;20184;-73
2022/10/21 00:03:22;;;;;;;12.90;5.60;;;;;;;20.99;68.06;100031.00;4950528;28;20294;-72
2022/10/21 00:05:48;;;;;;;8.00;4.73;;;;;;;20.99;67.78;100049.06;4973964;28;20309;-72
2022/10/21 00:08:13;;;;;;;9.97;5.23;;;;;;;21.00;67.50;100059.31;4956799;28;20458;-72
2022/10/21 00:10:39;;;;;;;9.30;4.60;;;;;;;21.01;67.70;100066.69;4956867;28;20190;-72
2022/10/21 00:13:04;;;;;;;7.20;4.37;;;;;;;20.99;67.66;100063.41;4974410;28;20210;-72
2022/10/21 00:15:30;;;;;;;9.10;5.40;;;;;;;20.99;67.94;100086.38;4940797;28;20936;-70
2022/10/21 00:17:55;;;;;;;8.63;5.13;;;;;;;20.99;68.04;100085.53;4972652;28;20611;-70
2022/10/21 00:20:20;;;;;;;7.50;4.67;;;;;;;20.98;68.22;100061.72;4956307;28;20203;-70
2022/10/21 00:22:46;;;;;;;6.27;4.57;;;;;;;20.97;67.75;100037.13;4956582;28;20189;-70
2022/10/21 00:25:11;;;;;;;9.80;4.30;;;;;;;20.97;68.02;100025.66;4972449;28;20622;-70
2022/10/21 00:27:37;;;;;;;7.80;4.37;;;;;;;20.97;68.44;100025.66;4972069;28;20202;-70
2022/10/21 00:30:04;;;;;;;8.67;5.10;;;;;;;20.97;68.24;100027.72;4956458;28;20610;-70
2022/10/21 00:32:30;;;;;;;11.30;4.33;;;;;;;20.95;67.97;100016.63;4940074;28;20210;-70
2022/10/21 00:34:56;;;;;;;9.03;4.90;;;;;;;20.97;68.19;100013.38;4956260;28;20429;-70
2022/10/21 00:37:21;;;;;;;6.53;4.10;;;;;;;20.97;67.98;100005.56;4974125;28;20839;-70
2022/10/21 00:39:47;;;;;;;7.97;4.23;;;;;;;20.98;68.13;99997.78;4956047;28;20580;-70
2022/10/21 00:42:17;;;;;;;6.73;4.43;;;;;;;20.95;67.92;99993.69;4942944;28;20634;-70
2022/10/21 00:44:43;;;;;;;11.30;5.40;;;;;;;20.95;68.12;99990.81;4972257;28;20174;-70
2022/10/21 00:47:14;;;;;;;6.50;4.33;;;;;;;20.96;68.41;99974.38;4956052;28;20457;-70
2022/10/21 00:49:53;;;;;;;6.93;4.63;;;;;;;20.95;68.30;99979.31;4956252;28;20559;-70
2022/10/21 00:52:20;;;;;;;11.67;5.37;;;;;;;20.96;67.90;99963.75;4941554;28;20440;-70
2022/10/21 00:54:46;;;;;;;5.87;4.63;;;;;;;20.94;68.10;99963.34;4940174;28;20414;-70
2022/10/21 00:57:11;;;;;;;9.17;5.70;;;;;;;20.93;68.09;99952.25;4956049;28;20472;-70
2022/10/21 00:59:43;;;;;;;7.13;4.27;;;;;;;20.96;68.24;99958.00;4924507;28;20186;-70
2022/10/21 01:02:08;;;;;;;6.60;4.33;;;;;;;20.94;68.26;99942.41;4951725;29;20186;-71
2022/10/21 01:04:33;;;;;;;7.93;4.20;;;;;;;20.92;67.85;99939.94;4968637;28;20484;-70
2022/10/21 01:06:59;;;;;;;10.30;4.30;;;;;;;20.93;67.87;99938.72;4939804;28;20210;-70
2022/10/21 01:09:24;;;;;;;6.43;4.10;;;;;;;20.91;68.71;99926.00;4955912;28;20174;-70
2022/10/21 01:11:50;;;;;;;6.20;4.17;;;;;;;20.93;68.21;99927.22;4939962;28;20166;-70
2022/10/21 01:14:27;;;;;;;6.73;3.80;;;;;;;20.92;68.08;99922.72;4955498;28;20541;-70
2022/10/21 01:17:16;;;;;;;6.67;4.07;;;;;;;20.91;68.29;99921.09;4955700;28;20158;-70
2022/10/21 01:20:00;;;;;;;5.63;4.10;;;;;;;20.92;68.18;99913.31;4955326;28;20441;-71
2022/10/21 01:22:45;;;;;;;4.60;3.47;;;;;;;20.93;68.23;99920.69;4971790;28;20421;-71
2022/10/21 01:25:27;;;;;;;5.63;4.07;;;;;;;20.91;68.12;99905.91;4957284;28;20469;-71
2022/10/21 01:28:11;;;;;;;5.17;4.07;;;;;;;20.92;68.17;99905.50;4990908;28;20453;-71
2022/10/21 01:30:46;;;;;;;5.97;4.17;;;;;;;20.91;68.39;99892.41;4992240;28;20401;-70
2022/10/21 01:33:51;;;;;;;6.13;4.10;;;;;;;20.91;68.27;99895.28;4958733;28;20440;-71
2022/10/21 01:36:31;;;;;;;7.17;4.07;;;;;;;20.92;67.97;99890.38;4985463;28;20437;-71
2022/10/21 01:39:31;;;;;;;7.37;4.50;;;;;;;20.92;68.52;99879.69;4972575;28;20421;-70
2022/10/21 01:42:35;;;;;;;6.30;4.33;;;;;;;20.90;68.19;99879.28;4954798;28;20422;-70
2022/10/21 01:45:08;;;;;;;4.73;3.50;;;;;;;20.90;68.31;99882.16;4968800;28;20507;-71
2022/10/21 01:47:41;;;;;;;5.67;4.03;;;;;;;20.92;68.06;99884.63;4942697;28;20488;-71
2022/10/21 01:50:18;;;;;;;7.30;4.17;;;;;;;20.91;68.56;99895.28;4970846;28;20480;-71
2022/10/21 01:52:46;;;;;;;6.00;3.87;;;;;;;20.87;68.60;99880.06;4970129;28;20409;-71
2022/10/21 01:55:13;;;;;;;4.87;3.60;;;;;;;20.89;68.41;99868.16;4970902;28;20420;-71
2022/10/21 01:57:41;;;;;;;7.07;4.20;;;;;;;20.89;68.43;99857.56;4970757;28;20464;-71
2022/10/21 02:00:07;;;;;;;7.10;4.53;;;;;;;20.88;68.58;99837.84;4970854;28;20425;-71
2022/10/21 02:02:36;;;;;;;5.30;3.70;;;;;;;20.90;68.22;99836.25;4987223;28;20422;-71
2022/10/21 02:05:06;;;;;;;5.80;4.37;;;;;;;20.87;68.17;99834.13;4951860;28;20479;-71
2022/10/21 02:07:32;;;;;;;8.67;3.97;;;;;;;20.87;68.73;99831.28;4951823;29;20470;-71
2022/10/21 02:09:57;;;;;;;6.03;4.10;;;;;;;20.89;68.48;99828.88;4952775;28;20452;-71
2022/10/21 02:12:23;;;;;;;4.67;3.90;;;;;;;20.87;68.41;99814.06;4935745;29;20186;-71
2022/10/21 02:14:49;;;;;;;5.07;3.77;;;;;;;20.86;68.50;99803.81;4951540;29;20183;-71
2022/10/21 02:17:16;;;;;;;5.67;3.80;;;;;;;20.88;68.32;99807.06;4935798;29;20187;-71
2022/10/21 02:19:41;;;;;;;4.40;3.50;;;;;;;20.85;68.11;99805.03;4935052;29;20490;-71
2022/10/21 02:22:07;;;;;;;5.80;4.10;;;;;;;20.86;68.02;99800.94;4935645;29;20518;-71
2022/10/21 02:24:32;;;;;;;4.53;3.53;;;;;;;20.87;68.01;99801.78;4951771;28;20172;-71
2022/10/21 02:26:58;;;;;;;6.27;4.20;;;;;;;20.88;68.50;99809.94;4956167;28;20264;-71
2022/10/21 02:29:25;;;;;;;4.47;3.80;;;;;;;20.87;68.31;99791.09;4955135;29;20179;-71
2022/10/21 02:32:16;;;;;;;5.13;3.73;;;;;;;20.88;68.24;99795.59;4955406;29;20237;-71
2022/10/21 02:34:53;;;;;;;5.00;3.67;;;;;;;20.85;68.44;99799.31;4956738;29;21119;-71
2022/10/21 02:37:24;;;;;;;5.00;3.50;;;;;;;20.86;68.83;99794.38;4955753;29;21067;-71
2022/10/21 02:39:51;;;;;;;5.40;3.60;;;;;;;20.83;68.46;99793.13;4959269;28;20415;-71
2022/10/21 02:42:20;;;;;;;6.10;3.60;;;;;;;20.85;68.47;99792.75;4955297;29;20458;-71
2022/10/21 02:44:45;;;;;;;5.27;3.50;;;;;;;20.83;68.39;99783.72;4971404;28;21206;-71
2022/10/21 02:47:11;;;;;;;4.90;3.60;;;;;;;20.87;68.17;99785.34;4954959;29;20501;-71
2022/10/21 02:49:36;;;;;;;8.73;3.40;;;;;;;20.83;68.14;99775.91;4956311;28;20517;-71
2022/10/21 02:52:01;;;;;;;5.03;3.80;;;;;;;20.84;68.02;99762.41;4971135;28;20643;-71
2022/10/21 02:54:27;;;;;;;5.77;3.90;;;;;;;20.84;68.82;99768.16;4956400;28;20639;-71
2022/10/21 02:56:52;;;;;;;4.27;3.47;;;;;;;20.83;68.56;99764.44;4956465;28;20596;-71
2022/10/21 02:59:18;;;;;;;5.03;3.20;;;;;;;20.84;68.50;99779.63;4971281;28;20179;-71
2022/10/21 03:01:43;;;;;;;4.23;3.23;;;;;;;20.85;67.94;99769.78;4954982;29;20203;-71
2022/10/21 03:04:09;;;;;;;6.20;4.00;;;;;;;20.83;68.64;99781.66;4950233;28;20231;-71
2022/10/21 03:06:34;;;;;;;5.20;3.77;;;;;;;20.84;68.63;99783.31;4946801;28;20191;-71
2022/10/21 03:08:59;;;;;;;4.80;3.43;;;;;;;20.83;68.21;99778.78;4975315;28;20182;-71
2022/10/21 03:11:25;;;;;;;6.57;3.30;;;;;;;20.84;68.30;99774.72;4973984;28;20178;-71
2022/10/21 03:13:50;;;;;;;5.43;3.23;;;;;;;20.84;68.44;99774.72;4975365;28;20179;-71
2022/10/21 03:16:16;;;;;;;5.00;3.10;;;;;;;20.85;68.06;99775.53;4958073;28;20170;-71
2022/10/21 03:18:41;;;;;;;5.17;4.00;;;;;;;20.81;68.26;99771.81;4975257;28;20167;-71
2022/10/21 03:21:06;;;;;;;4.70;3.27;;;;;;;20.82;68.34;99782.91;4964070;28;20190;-71
2022/10/21 03:23:32;;;;;;;6.00;3.80;;;;;;;20.81;68.25;99781.25;4957713;28;20159;-71
2022/10/21 03:25:58;;;;;;;5.50;3.67;;;;;;;20.83;68.59;99790.28;4957921;28;20174;-71
2022/10/21 03:28:23;;;;;;;4.83;3.60;;;;;;;20.80;68.32;99793.97;4974846;28;20203;-71
2022/10/21 03:30:49;;;;;;;4.70;3.53;;;;;;;20.80;68.20;99791.09;4957767;28;20225;-71
2022/10/21 03:33:14;;;;;;;5.03;3.83;;;;;;;20.81;68.46;99791.91;4974676;28;20187;-71
2022/10/21 03:35:39;;;;;;;5.70;3.43;;;;;;;20.81;68.22;99797.66;4941664;28;20163;-71
2022/10/21 03:38:05;;;;;;;3.93;3.13;;;;;;;20.80;68.47;99784.53;4972296;28;20155;-71
2022/10/21 03:40:30;;;;;;;4.97;3.40;;;;;;;20.82;68.61;99785.75;4957590;28;20163;-71
2022/10/21 03:42:56;;;;;;;4.80;3.40;;;;;;;20.80;68.23;99784.53;4974811;28;20170;-71
2022/10/21 03:45:22;;;;;;;5.87;3.37;;;;;;;20.84;68.48;99783.31;4941372;28;20337;-71
2022/10/21 03:47:47;;;;;;;4.50;3.33;;;;;;;20.82;67.93;99785.75;4957279;28;20552;-71
2022/10/21 03:50:13;;;;;;;4.60;3.53;;;;;;;20.78;68.47;99779.19;4973408;28;20181;-71
2022/10/21 03:52:38;;;;;;;5.80;3.70;;;;;;;20.80;68.37;99782.50;4957347;28;20163;-71
2022/10/21 03:55:04;;;;;;;5.03;3.47;;;;;;;20.81;68.25;99783.31;4959481;28;20195;-72
2022/10/21 03:57:30;;;;;;;4.60;3.50;;;;;;;20.83;67.84;99784.53;4957799;28;20191;-72
2022/10/21 03:59:55;;;;;;;4.80;3.50;;;;;;;20.79;68.18;99789.47;4941357;28;20181;-71
2022/10/21 04:02:20;;;;;;;5.00;3.07;;;;;;;20.80;68.15;99779.63;4957203;28;20250;-71
2022/10/21 04:04:46;;;;;;;4.77;3.23;;;;;;;20.79;68.59;99778.00;4940834;28;20226;-71
2022/10/21 04:07:11;;;;;;;4.20;3.23;;;;;;;20.80;68.45;99788.25;4973868;28;20233;-71
2022/10/21 04:09:37;;;;;;;4.73;3.30;;;;;;;20.79;68.23;99783.72;4957138;28;20181;-71
2022/10/21 04:12:02;;;;;;;4.30;2.97;;;;;;;20.79;68.62;99786.59;4940092;28;20174;-71
2022/10/21 04:14:28;;;;;;;4.50;3.10;;;;;;;20.79;68.02;99777.16;4956290;28;20319;-71
2022/10/21 04:16:53;;;;;;;4.23;2.97;;;;;;;20.79;68.69;99778.00;4955796;28;20167;-71
2022/10/21 04:19:19;;;;;;;5.07;3.60;;;;;;;20.79;68.38;99766.53;4973676;28;20537;-71
2022/10/21 04:21:44;;;;;;;5.53;3.17;;;;;;;20.80;68.08;99764.44;4939815;28;20694;-71
2022/10/21 04:24:10;;;;;;;4.87;3.60;;;;;;;20.78;68.17;99764.84;4956165;28;20228;-72
2022/10/21 04:26:35;;;;;;;4.83;3.40;;;;;;;20.79;68.21;99769.38;4940458;28;20511;-71
2022/10/21 04:29:01;;;;;;;4.47;3.23;;;;;;;20.79;68.10;99777.16;4974201;28;20289;-72
2022/10/21 04:31:26;;;;;;;3.83;3.03;;;;;;;20.78;68.27;99776.31;4973411;28;20658;-71
2022/10/21 04:33:52;;;;;;;4.47;3.17;;;;;;;20.80;68.20;99773.06;4956935;28;20665;-71
2022/10/21 04:36:17;;;;;;;7.73;3.73;;;;;;;20.78;68.15;99773.47;4956380;28;20195;-71
2022/10/21 04:38:43;;;;;;;4.43;3.20;;;;;;;20.78;68.38;99776.31;4956486;28;20185;-72
2022/10/21 04:41:08;;;;;;;3.53;3.03;;;;;;;20.81;68.51;99774.69;4956481;28;20179;-71
2022/10/21 04:43:35;;;;;;;4.70;3.27;;;;;;;20.78;68.26;99764.06;4956076;28;20546;-71
2022/10/21 04:46:01;;;;;;;3.67;2.90;;;;;;;20.80;68.08;99765.28;4948759;28;20182;-72
2022/10/21 04:48:26;;;;;;;3.73;3.23;;;;;;;20.80;68.84;99767.31;4974927;28;20457;-72
2022/10/21 04:50:52;;;;;;;4.40;2.90;;;;;;;20.79;68.15;99775.13;4959692;28;20756;-71
2022/10/21 04:53:17;;;;;;;5.33;3.30;;;;;;;20.80;68.50;99784.53;4959393;28;20268;-72
2022/10/21 04:55:43;;;;;;;3.80;2.93;;;;;;;20.78;68.23;99781.25;4975406;28;20163;-72
2022/10/21 04:58:08;;;;;;;3.87;2.70;;;;;;;20.79;68.43;99778.00;4975597;28;20293;-72
2022/10/21 05:00:33;;;;;;;5.83;3.07;;;;;;;20.80;67.81;99773.06;4975545;28;20216;-72
2022/10/21 05:02:59;;;;;;;4.13;3.20;;;;;;;20.77;68.06;99768.97;4956316;28;20178;-72
2022/10/21 05:05:24;;;;;;;5.10;3.03;;;;;;;20.78;68.14;99767.72;4973039;28;20300;-72
2022/10/21 05:07:50;;;;;;;5.17;3.10;;;;;;;20.77;68.09;99763.22;4955941;28;20308;-72
2022/10/21 05:10:15;;;;;;;3.80;2.83;;;;;;;20.78;68.23;99749.72;4957981;28;20186;-72
2022/10/21 05:12:41;;;;;;;4.17;3.00;;;;;;;20.78;68.39;99753.38;4973425;28;20209;-72
2022/10/21 05:15:07;;;;;;;4.37;3.33;;;;;;;20.79;68.07;99751.34;4972926;28;20186;-72
2022/10/21 05:17:32;;;;;;;4.60;3.27;;;;;;;20.79;68.26;99739.88;4939687;28;20205;-72
2022/10/21 05:19:57;;;;;;;5.70;3.20;;;;;;;20.79;68.23;99742.72;4939660;28;20182;-72
2022/10/21 05:22:23;;;;;;;4.03;3.10;;;;;;;20.78;68.39;99733.28;4955418;28;20784;-71
2022/10/21 05:24:48;;;;;;;3.50;2.43;;;;;;;20.78;68.11;99730.44;4955805;28;20186;-72
2022/10/21 05:27:14;;;;;;;3.67;2.70;;;;;;;20.81;68.27;99734.53;4939649;28;20221;-72
2022/10/21 05:29:39;;;;;;;5.10;3.37;;;;;;;20.79;68.05;99734.97;4973048;28;20182;-72
2022/10/21 05:32:05;;;;;;;4.50;3.40;;;;;;;20.80;68.31;99735.75;4939513;28;20170;-72
2022/10/21 05:34:30;;;;;;;3.90;2.93;;;;;;;20.77;68.29;99725.94;4955156;28;20626;-72
2022/10/21 05:36:56;;;;;;;4.50;3.30;;;;;;;20.80;68.16;99709.94;4955231;28;20241;-72
2022/10/21 05:39:21;;;;;;;3.90;2.83;;;;;;;20.80;68.23;99715.69;4939573;28;20206;-72
2022/10/21 05:41:47;;;;;;;5.27;3.50;;;;;;;20.79;68.23;99705.44;4972887;28;20167;-72
2022/10/21 05:44:12;;;;;;;5.00;3.17;;;;;;;20.80;68.23;99702.16;4939350;28;20178;-72
2022/10/21 05:46:38;;;;;;;3.73;3.00;;;;;;;20.77;68.45;99711.56;4955194;28;20197;-72
2022/10/21 05:49:03;;;;;;;3.53;2.83;;;;;;;20.78;68.35;99712.41;4972599;28;20189;-72
2022/10/21 05:51:29;;;;;;;4.07;2.90;;;;;;;20.80;68.11;99718.53;4938662;28;20228;-73
2022/10/21 05:53:56;;;;;;;3.60;2.90;;;;;;;20.80;68.14;99702.16;4952551;28;20201;-72
2022/10/21 05:56:21;;;;;;;4.50;2.60;;;;;;;20.82;68.13;99718.97;4939330;28;20644;-72
2022/10/21 05:58:47;;;;;;;3.63;2.80;;;;;;;20.81;67.82;99734.53;4955094;28;20476;-72
2022/10/21 06:01:13;;;;;;;4.20;3.20;;;;;;;20.77;68.06;99751.75;4938913;28;20198;-73
2022/10/21 06:03:38;;;;;;;3.70;2.53;;;;;;;20.79;68.18;99743.56;4940624;28;20205;-72
2022/10/21 06:06:05;;;;;;;4.10;2.67;;;;;;;20.78;68.04;99746.84;4972419;28;20201;-73
2022/10/21 06:08:31;;;;;;;4.03;3.17;;;;;;;20.78;68.05;99752.56;4955001;28;20202;-73
2022/10/21 06:11:08;;;;;;;3.63;2.77;;;;;;;20.79;68.18;99759.94;4954817;28;20409;-73
2022/10/21 06:13:33;;;;;;;5.00;2.77;;;;;;;20.81;67.87;99754.59;4955032;28;20498;-73
2022/10/21 06:15:59;;;;;;;4.50;3.30;;;;;;;20.77;68.13;99763.22;4972237;28;20470;-73
2022/10/21 06:18:25;;;;;;;4.00;3.07;;;;;;;20.78;68.38;99744.78;4943442;29;20179;-73
2022/10/21 06:20:51;;;;;;;4.07;3.10;;;;;;;20.79;67.99;99728.38;4922184;29;20426;-73
2022/10/21 06:23:16;;;;;;;4.50;3.07;;;;;;;20.78;68.00;99695.19;4935744;29;20180;-73
2022/10/21 06:25:42;;;;;;;4.00;3.03;;;;;;;20.82;67.91;99708.31;4935930;29;20191;-72
2022/10/21 06:28:08;;;;;;;9.00;4.00;;;;;;;20.82;69.11;99708.31;4957642;28;20215;-75
2022/10/21 06:30:34;;;;;;;8.80;5.70;;;;;;;20.95;69.88;99694.38;4932997;28;20434;-72
2022/10/21 06:32:59;;;;;;;9.40;5.67;;;;;;;21.05;70.57;99697.25;4968922;28;20198;-72
2022/10/21 06:35:24;;;;;;;21.43;7.33;;;;;;;21.27;71.03;99689.41;4950587;28;20182;-72
2022/10/21 06:37:50;;;;;;;12.93;6.50;;;;;;;21.02;71.88;99705.88;4933926;28;20170;-73
2022/10/21 06:40:15;;;;;;;20.90;6.37;;;;;;;20.85;71.40;99710.34;4951291;28;20189;-76
2022/10/21 06:42:41;;;;;;;14.73;5.10;;;;;;;20.88;72.14;99721.00;4944223;28;20531;-77
2022/10/21 06:45:06;;;;;;;12.37;4.83;;;;;;;20.89;70.76;99742.78;4963070;28;20681;-77
2022/10/21 06:47:32;;;;;;;17.10;5.60;;;;;;;20.93;69.45;99766.53;4952677;28;20218;-76
2022/10/21 06:50:01;;;;;;;17.13;4.73;;;;;;;20.97;69.63;99767.34;4952502;28;20174;-73
2022/10/21 06:52:28;;;;;;;21.03;6.20;;;;;;;21.02;69.89;99752.59;4939905;28;20205;-75
2022/10/21 06:54:53;;;;;;;17.30;5.80;;;;;;;21.02;69.88;99751.78;4933050;29;20435;-74
2022/10/21 06:57:19;;;;;;;15.80;4.70;;;;;;;21.04;70.20;99755.88;4935878;28;20421;-76
2022/10/21 06:59:46;;;;;;;11.70;4.40;;;;;;;21.07;70.16;99752.19;4935828;28;20190;-77
2022/10/21 07:02:11;;;;;;;13.00;5.10;;;;;;;21.10;69.83;99750.53;4936381;28;20194;-74
2022/10/21 07:04:36;;;;;;;15.53;6.20;;;;;;;21.34;69.91;99749.69;4918741;29;20479;-73
2022/10/21 07:07:02;;;;;;;15.27;6.50;;;;;;;21.53;69.92;99750.03;4963488;28;20601;-73
2022/10/21 07:09:27;;;;;;;15.83;5.80;;;;;;;21.47;69.46;99737.34;4970770;28;20530;-71
2022/10/21 07:11:53;;;;;;;11.47;5.60;;;;;;;21.42;70.32;99732.03;4933606;29;20207;-71
2022/10/21 07:14:18;;;;;;;12.87;5.50;;;;;;;21.28;70.94;99742.72;4953171;29;20183;-72
2022/10/21 07:16:44;;;;;;;11.47;5.33;;;;;;;21.28;70.73;99743.53;4951569;29;20190;-71
2022/10/21 07:19:09;;;;;;;15.17;4.87;;;;;;;21.24;71.81;99751.34;4949928;29;20199;-71
2022/10/21 07:21:35;;;;;;;11.30;4.90;;;;;;;21.15;71.69;99767.34;4949828;29;20199;-71
2022/10/21 07:24:00;;;;;;;13.03;5.27;;;;;;;21.07;71.49;99760.78;4939250;29;20623;-71
2022/10/21 07:26:30;;;;;;;16.10;5.47;;;;;;;21.07;72.99;99748.50;4935181;29;20253;-72
2022/10/21 07:28:57;;;;;;;14.80;5.53;;;;;;;21.09;73.53;99752.59;4934371;29;20230;-73
2022/10/21 07:31:22;;;;;;;18.27;5.53;;;;;;;21.09;72.58;99775.56;4937598;29;20435;-71
2022/10/21 07:33:48;;;;;;;12.10;5.97;;;;;;;21.07;71.12;99782.94;4948977;28;20443;-70
2022/10/21 07:36:24;;;;;;;12.23;4.80;;;;;;;21.04;70.97;99780.88;4938109;29;20191;-70
2022/10/21 07:38:50;;;;;;;14.00;5.90;;;;;;;20.99;70.69;99787.88;4938937;29;20190;-71
2022/10/21 07:41:25;;;;;;;11.57;4.87;;;;;;;20.99;69.96;99782.13;4953597;29;20423;-70
2022/10/21 07:43:51;;;;;;;15.30;5.70;;;;;;;20.98;70.27;99791.94;4939291;29;20163;-70
2022/10/21 07:46:17;;;;;;;11.93;4.60;;;;;;;20.98;70.15;99799.75;4924112;29;20435;-70
2022/10/21 07:48:42;;;;;;;12.10;4.53;;;;;;;20.98;70.06;99802.63;4937085;29;20207;-70
2022/10/21 07:51:10;;;;;;;15.00;5.40;;;;;;;20.96;69.83;99788.69;4938651;29;20548;-71
2022/10/21 07:53:35;;;;;;;13.90;4.73;;;;;;;20.97;70.41;99812.47;4954075;29;20180;-71
2022/10/21 07:56:09;;;;;;;10.30;4.40;;;;;;;20.96;70.76;99825.16;4954604;29;20783;-70
2022/10/21 07:58:35;;;;;;;13.53;4.43;;;;;;;20.98;70.86;99826.38;4954281;29;20179;-70
2022/10/21 08:01:03;;;;;;;15.10;5.07;;;;;;;20.98;70.75;99845.69;4954149;29;20425;-70
2022/10/21 08:03:29;;;;;;;19.50;5.57;;;;;;;20.99;70.55;99841.56;4937501;29;20265;-70
2022/10/21 08:05:55;;;;;;;14.53;4.53;;;;;;;20.98;70.57;99834.19;4952950;28;20426;-70
2022/10/21 08:08:20;;;;;;;14.60;4.70;;;;;;;20.98;70.48;99857.16;4945799;28;20203;-70
2022/10/21 08:10:46;;;;;;;13.73;4.67;;;;;;;20.97;70.49;99838.31;4948414;29;20698;-70
2022/10/21 08:13:12;;;;;;;13.23;4.70;;;;;;;20.97;70.66;99855.53;4937259;29;20686;-70
2022/10/21 08:15:43;;;;;;;12.13;3.90;;;;;;;20.96;70.03;99846.06;4945307;28;20426;-70
2022/10/21 08:18:08;;;;;;;11.93;5.10;;;;;;;20.98;70.19;99837.88;4963773;28;20198;-70
2022/10/21 08:20:37;;;;;;;9.97;4.70;;;;;;;20.97;70.68;99855.53;4954880;28;20836;-70
2022/10/21 08:23:03;;;;;;;10.53;4.27;;;;;;;20.96;70.15;99863.28;4942303;28;20666;-70
2022/10/21 08:25:28;;;;;;;13.90;4.40;;;;;;;20.98;70.07;99865.75;4937738;28;20493;-69
2022/10/21 08:27:54;;;;;;;9.80;4.07;;;;;;;20.97;70.57;99878.47;4958682;28;20214;-70
2022/10/21 08:30:19;;;;;;;7.70;3.93;;;;;;;20.97;70.05;99882.16;4956231;28;20186;-69
2022/10/21 08:32:45;;;;;;;10.00;3.50;;;;;;;20.96;70.48;99885.41;4965784;28;20186;-70
2022/10/21 08:35:10;;;;;;;13.73;4.40;;;;;;;20.96;70.34;99885.41;4959942;28;20183;-70
2022/10/21 08:37:36;;;;;;;9.43;4.20;;;;;;;20.95;70.70;99890.38;4951931;28;20183;-70
2022/10/21 08:40:01;;;;;;;6.93;4.00;;;;;;;20.94;69.99;99897.34;4956049;28;20253;-70
2022/10/21 08:42:27;;;;;;;12.10;4.70;;;;;;;20.95;70.37;99901.00;4935139;28;20190;-70
2022/10/21 08:44:58;;;;;;;11.57;4.07;;;;;;;20.95;70.39;99896.09;4962477;28;20194;-70
2022/10/21 08:47:30;;;;;;;7.87;4.30;;;;;;;20.93;70.36;99889.94;4941185;29;20203;-70
2022/10/21 08:50:02;;;;;;;8.57;4.33;;;;;;;20.94;70.19;99899.38;4954310;28;20429;-70
2022/10/21 08:52:41;;;;;;;8.50;4.10;;;;;;;20.95;70.30;99907.59;4961489;28;20489;-70
2022/10/21 08:55:23;;;;;;;8.07;4.53;;;;;;;20.93;69.89;99910.00;4939614;28;20429;-70
2022/10/21 08:57:48;;;;;;;8.70;4.50;;;;;;;20.93;70.26;99904.28;4940125;28;20897;-70
2022/10/21 09:00:19;;;;;;;9.83;4.40;;;;;;;20.93;70.00;99901.41;4953492;28;20425;-71
2022/10/21 09:03:04;;;;;;;7.07;3.60;;;;;;;20.92;70.18;99891.16;4934892;28;20175;-71
2022/10/21 09:05:45;;;;;;;8.53;3.67;;;;;;;20.94;69.93;99907.97;4936987;29;20559;-71
2022/10/21 09:08:29;;;;;;;8.27;3.67;;;;;;;20.94;69.91;99905.09;4963164;28;20492;-71
2022/10/21 09:10:57;;;;;;;11.60;4.90;;;;;;;20.95;70.25;99904.72;4943788;28;20474;-71
2022/10/21 09:13:43;;;;;;;10.03;4.00;;;;;;;20.93;69.79;99912.88;4956926;28;20469;-71
2022/10/21 09:16:32;;;;;;;9.90;4.47;;;;;;;20.93;69.97;99921.50;4935546;29;20432;-71
2022/10/21 09:19:19;;;;;;;5.77;3.63;;;;;;;20.94;70.29;99913.72;4954529;28;20501;-73
2022/10/21 09:22:06;;;;;;;7.60;3.60;;;;;;;20.92;69.77;99917.00;4943678;29;20517;-74
2022/10/21 09:24:58;;;;;;;10.93;3.97;;;;;;;20.93;70.28;99909.22;4935056;29;20439;-72
2022/10/21 09:27:24;;;;;;;9.50;4.27;;;;;;;20.91;70.06;99903.88;4915371;29;20468;-71
2022/10/21 09:29:53;;;;;;;7.60;3.20;;;;;;;20.93;69.87;99904.28;4933329;29;20439;-72
2022/10/21 09:32:24;;;;;;;6.03;3.50;;;;;;;20.93;70.02;99909.22;4922263;29;20278;-71
2022/10/21 09:35:08;;;;;;;11.80;3.50;;;;;;;20.93;70.02;99912.09;4923686;29;20833;-71
2022/10/21 09:37:44;;;;;;;9.90;3.33;;;;;;;20.92;69.64;99919.84;4931192;29;20915;-71
2022/10/21 09:40:14;;;;;;;8.97;3.30;;;;;;;20.93;69.41;99929.31;4940412;29;20427;-71
2022/10/21 09:42:39;;;;;;;8.17;3.63;;;;;;;20.92;70.27;99924.81;4949590;29;20480;-72
2022/10/21 09:45:05;;;;;;;8.77;3.90;;;;;;;20.92;69.66;99924.81;4956788;28;20828;-72
2022/10/21 09:47:31;;;;;;;10.03;3.90;;;;;;;20.93;69.89;99921.50;4951835;29;20199;-72
2022/10/21 09:49:57;;;;;;;7.53;3.90;;;;;;;20.91;69.63;99915.34;4927845;29;20211;-72
2022/10/21 09:52:25;;;;;;;6.30;3.50;;;;;;;20.94;69.87;99928.06;4951820;28;20187;-72
2022/10/21 09:54:51;;;;;;;7.00;3.40;;;;;;;20.91;69.63;99915.34;4937530;29;20527;-72
2022/10/21 09:57:22;;;;;;;8.83;3.80;;;;;;;20.93;69.59;99914.94;4948391;28;20444;-72
2022/10/21 09:59:56;;;;;;;5.93;3.90;;;;;;;20.91;69.58;99923.97;4951268;28;21133;-72
2022/10/21 10:02:27;;;;;;;7.90;3.87;;;;;;;20.91;69.54;99929.69;4938218;29;20446;-72
2022/10/21 10:04:53;;;;;;;10.43;3.20;;;;;;;20.91;69.98;99934.59;4939601;28;20467;-72
2022/10/21 10:07:24;;;;;;;7.00;3.77;;;;;;;20.92;69.58;99937.06;4936941;29;20482;-72
2022/10/21 10:09:49;;;;;;;5.37;3.20;;;;;;;20.92;69.52;99931.34;4949698;28;20714;-72
2022/10/21 10:12:19;;;;;;;6.80;3.63;;;;;;;20.92;69.50;99937.06;4940407;29;20517;-72
2022/10/21 10:14:44;;;;;;;8.80;3.67;;;;;;;20.92;69.72;99934.22;4931967;29;21100;-72
2022/10/21 10:17:22;;;;;;;4.80;2.80;;;;;;;20.92;69.45;99939.16;4933795;29;20439;-72
2022/10/21 10:20:03;;;;;;;7.17;3.37;;;;;;;20.93;69.52;99938.72;4941584;29;20184;-71
2022/10/21 10:22:40;;;;;;;8.10;3.27;;;;;;;20.90;69.61;99928.06;4936084;29;20509;-71
2022/10/21 10:25:15;;;;;;;5.80;3.40;;;;;;;20.92;69.92;99930.53;4927244;29;20442;-71
2022/10/21 10:28:00;;;;;;;11.10;3.47;;;;;;;20.92;69.62;99939.94;4947722;28;20517;-71
2022/10/21 10:30:31;;;;;;;6.13;3.03;;;;;;;20.91;69.67;99929.69;4938723;29;20775;-71
2022/10/21 10:32:56;;;;;;;7.10;2.90;;;;;;;20.93;69.73;99927.22;4939964;29;21209;-71
2022/10/21 10:35:33;;;;;;;7.80;4.13;;;;;;;20.91;69.58;99923.97;4951019;28;20437;-71
2022/10/21 10:37:59;;;;;;;8.40;3.30;;;;;;;20.91;69.69;99923.97;4942545;29;20187;-71
2022/10/21 10:40:37;;;;;;;4.93;3.10;;;;;;;20.92;69.83;99924.81;4938168;29;20455;-71
2022/10/21 10:43:06;;;;;;;5.57;3.10;;;;;;;20.92;69.04;99917.00;4921953;29;20415;-71
2022/10/21 10:45:32;;;;;;;5.40;2.90;;;;;;;20.91;69.32;99921.09;4922357;28;20926;-71
2022/10/21 10:47:58;;;;;;;6.90;3.13;;;;;;;20.91;69.44;99912.47;4914940;29;20473;-71
2022/10/21 10:50:41;;;;;;;7.60;3.60;;;;;;;20.94;69.54;99926.03;4932996;29;20240;-71
2022/10/21 10:53:28;;;;;;;5.47;3.03;;;;;;;20.91;69.67;99923.97;4946924;29;20431;-71
2022/10/21 10:55:58;;;;;;;8.10;3.07;;;;;;;20.92;69.53;99934.22;4939397;29;20446;-71
2022/10/21 10:58:25;;;;;;;8.30;3.50;;;;;;;20.92;69.66;99931.34;4953770;28;20422;-71
2022/10/21 11:00:50;;;;;;;5.33;2.80;;;;;;;20.92;69.51;99924.81;4940086;28;20432;-71
2022/10/21 11:03:19;;;;;;;9.97;3.57;;;;;;;20.92;69.57;99919.06;4946875;29;20423;-71
2022/10/21 11:05:46;;;;;;;8.10;3.10;;;;;;;20.93;69.19;99912.09;4918383;29;20875;-71
2022/10/21 11:08:15;;;;;;;7.53;3.83;;;;;;;20.93;69.34;99927.22;4922348;29;20542;-71
2022/10/21 11:10:43;;;;;;;5.30;3.37;;;;;;;20.92;69.28;99919.06;4932772;29;20462;-71
2022/10/21 11:13:11;;;;;;;4.37;2.50;;;;;;;20.92;69.43;99919.06;4908279;29;20423;-71
2022/10/21 11:15:51;;;;;;;5.20;3.20;;;;;;;20.91;69.24;99915.34;4941943;29;20441;-71
2022/10/21 11:18:18;;;;;;;5.40;3.13;;;;;;;20.93;69.32;99927.22;4948261;29;20425;-71
2022/10/21 11:21:05;;;;;;;5.60;2.80;;;;;;;20.92;69.16;99921.94;4936909;29;20450;-71
2022/10/21 11:24:08;;;;;;;6.20;3.27;;;;;;;20.93;69.23;99912.09;4937516;29;20455;-71
2022/10/21 11:26:56;;;;;;;4.47;2.70;;;;;;;20.92;69.44;99907.59;4937347;29;20829;-71
2022/10/21 11:29:55;;;;;;;6.20;2.90;;;;;;;20.92;69.45;99905.50;4940836;28;20426;-70
2022/10/21 11:32:20;;;;;;;5.83;3.43;;;;;;;20.90;69.29;99907.97;4939671;28;20473;-70
2022/10/21 11:35:26;;;;;;;4.93;3.07;;;;;;;20.91;69.20;99909.63;4936401;28;20455;-70
2022/10/21 11:38:02;;;;;;;5.60;3.27;;;;;;;20.91;69.30;99912.47;4929866;29;20891;-71
2022/10/21 11:40:46;;;;;;;6.10;3.03;;;;;;;20.92;69.55;99922.72;4953548;28;20443;-71